createdAt,value
2022-09-25T00:03:49.652Z,30.80
2022-09-25T00:08:48.981Z,23.30
2022-09-25T00:13:50.121Z,23.90
2022-09-25T00:18:47.426Z,24.10
2022-09-25T00:23:46.754Z,22.50
2022-09-25T00:28:46.108Z,20.40
2022-09-25T00:33:45.234Z,19.00
2022-09-25T00:38:44.557Z,19.00
2022-09-25T00:43:44.866Z,19.50
2022-09-25T00:48:44.183Z,15.50
2022-09-25T00:53:43.490Z,16.00
2022-09-25T00:58:42.818Z,18.70
2022-09-25T01:03:41.137Z,17.00
2022-09-25T01:08:40.456Z,17.70
2022-09-25T01:13:39.775Z,16.00
2022-09-25T01:18:41.107Z,14.20
2022-09-25T01:23:39.434Z,14.00
2022-09-25T01:28:39.761Z,13.20
2022-09-25T01:33:37.098Z,12.20
2022-09-25T01:38:36.212Z,11.50
2022-09-25T01:43:35.563Z,10.50
2022-09-25T01:48:34.691Z,11.40
2022-09-25T01:53:35.013Z,11.00
2022-09-25T01:58:34.314Z,10.60
2022-09-25T02:03:33.634Z,10.20
2022-09-25T02:08:31.935Z,9.60
2022-09-25T02:13:31.249Z,9.50
2022-09-25T02:18:31.561Z,9.10
2022-09-25T02:23:30.864Z,9.90
2022-09-25T02:28:30.155Z,8.00
2022-09-25T02:33:28.435Z,9.00
2022-09-25T02:38:28.745Z,7.80
2022-09-25T02:43:27.062Z,7.70
2022-09-25T02:48:26.369Z,7.90
2022-09-25T02:53:25.730Z,7.60
2022-09-25T02:58:24.824Z,7.60
2022-09-25T03:03:25.164Z,7.10
2022-09-25T03:08:23.322Z,7.40
2022-09-25T03:13:22.652Z,6.90
2022-09-25T03:18:24.003Z,7.40
2022-09-25T03:23:21.103Z,6.90
2022-09-25T03:28:20.483Z,7.30
2022-09-25T03:33:19.576Z,7.30
2022-09-25T03:38:18.863Z,7.10
2022-09-25T03:43:19.176Z,6.40
2022-09-25T03:48:19.462Z,7.30
2022-09-25T03:53:16.801Z,6.70
2022-09-25T03:58:16.878Z,6.70
2022-09-25T04:03:16.178Z,6.30
2022-09-25T04:08:15.465Z,6.40
2022-09-25T04:13:13.816Z,6.20
2022-09-25T04:18:12.953Z,6.50
2022-09-25T04:23:13.314Z,6.20
2022-09-25T04:28:11.502Z,6.00
2022-09-25T04:33:11.644Z,6.40
2022-09-25T04:38:09.799Z,6.10
2022-09-25T04:43:09.112Z,6.40
2022-09-25T04:48:08.411Z,6.90
2022-09-25T04:53:07.737Z,5.90
2022-09-25T04:58:08.048Z,6.20
2022-09-25T05:03:07.501Z,5.80
2022-09-25T05:08:07.651Z,6.30
2022-09-25T05:13:04.767Z,6.40
2022-09-25T05:18:04.110Z,5.90
2022-09-25T05:23:06.445Z,6.40
2022-09-25T05:28:02.766Z,6.60
2022-09-25T05:33:02.090Z,6.40
2022-09-25T05:38:01.386Z,6.80
2022-09-25T05:43:00.694Z,13.00
2022-09-25T05:48:00.003Z,9.90
2022-09-25T05:52:59.315Z,7.20
2022-09-25T05:57:58.615Z,7.20
2022-09-25T06:02:57.955Z,6.10
2022-09-25T06:07:59.142Z,6.60
2022-09-25T06:12:57.210Z,6.40
2022-09-25T06:17:55.514Z,6.60
2022-09-25T06:22:54.851Z,6.30
2022-09-25T06:27:55.956Z,6.80
2022-09-25T06:32:53.292Z,7.20
2022-09-25T06:37:53.610Z,6.70
2022-09-25T06:42:52.888Z,7.30
2022-09-25T06:47:52.180Z,6.60
2022-09-25T06:52:51.458Z,7.20
2022-09-25T06:57:49.808Z,7.60
2022-09-25T07:02:51.169Z,7.60
2022-09-25T07:07:48.325Z,7.70
2022-09-25T07:12:48.638Z,7.20
2022-09-25T07:17:47.942Z,7.00
2022-09-25T07:22:47.234Z,6.70
2022-09-25T07:27:45.525Z,6.20
2022-09-25T07:32:44.836Z,6.40
2022-09-25T07:37:45.164Z,6.50
2022-09-25T07:42:44.484Z,6.50
2022-09-25T07:47:43.797Z,6.50
2022-09-25T07:52:42.093Z,6.70
2022-09-25T07:57:42.428Z,8.30
2022-09-25T08:02:40.770Z,6.80
2022-09-25T08:07:40.040Z,8.40
2022-09-25T08:12:39.404Z,31.70
2022-09-25T08:17:39.551Z,48.30
2022-09-25T08:22:39.664Z,42.30
2022-09-25T08:27:37.934Z,68.80
2022-09-25T08:32:37.186Z,58.30
2022-09-25T08:37:36.421Z,77.40
2022-09-25T08:42:34.677Z,53.20
2022-09-25T08:47:35.962Z,42.70
2022-09-25T08:52:33.232Z,53.30
2022-09-25T08:57:32.507Z,30.30
2022-09-25T09:02:32.843Z,19.90
2022-09-25T09:07:31.133Z,17.40
2022-09-25T09:12:30.408Z,15.20
2022-09-25T09:17:29.705Z,14.30
2022-09-25T09:22:30.042Z,13.90
2022-09-25T09:27:28.349Z,12.70
2022-09-25T09:32:28.662Z,11.90
2022-09-25T09:37:27.953Z,11.70
2022-09-25T09:42:26.230Z,10.10
2022-09-25T09:47:25.522Z,10.20
2022-09-25T09:52:24.845Z,9.90
2022-09-25T09:57:23.965Z,8.90
2022-09-25T10:02:23.415Z,8.40
2022-09-25T10:07:22.585Z,8.80
2022-09-25T10:12:21.896Z,8.20
2022-09-25T10:17:22.243Z,8.80
2022-09-25T10:22:22.350Z,8.60
2022-09-25T10:27:19.638Z,9.00
2022-09-25T10:32:18.976Z,8.20
2022-09-25T10:37:20.219Z,7.80
2022-09-25T10:42:19.385Z,7.50
2022-09-25T10:47:18.565Z,7.50
2022-09-25T10:52:14.718Z,7.20
2022-09-25T10:57:14.921Z,6.20
2022-09-25T11:02:15.255Z,5.40
2022-09-25T11:07:16.347Z,6.20
2022-09-25T11:12:13.508Z,5.60
2022-09-25T11:17:11.687Z,5.80
2022-09-25T11:22:11.871Z,5.80
2022-09-25T11:27:12.055Z,5.10
2022-09-25T11:32:11.220Z,5.20
2022-09-25T11:37:08.397Z,5.20
2022-09-25T11:42:08.566Z,5.90
2022-09-25T11:47:06.740Z,5.20
2022-09-25T11:52:07.925Z,5.60
2022-09-25T11:57:05.098Z,6.30
2022-09-25T12:02:04.369Z,6.50
2022-09-25T12:07:04.585Z,5.30
2022-09-25T12:12:02.775Z,6.10
2022-09-25T12:17:02.941Z,4.80
2022-09-25T12:22:01.149Z,5.00
2022-09-25T12:27:00.329Z,5.00
2022-09-25T12:32:00.486Z,4.90
2022-09-25T12:36:59.744Z,5.30
2022-09-25T12:41:57.934Z,5.00
2022-09-25T12:46:57.099Z,4.60
2022-09-25T12:51:58.288Z,4.50
2022-09-25T12:56:56.442Z,134.70
2022-09-25T13:01:54.716Z,109.10
2022-09-25T13:06:53.899Z,61.80
2022-09-25T13:11:54.090Z,39.00
2022-09-25T13:16:53.319Z,29.00
2022-09-25T13:21:51.500Z,83.40
2022-09-25T13:26:52.735Z,138.00
2022-09-25T13:31:49.886Z,76.00
2022-09-25T13:36:49.063Z,48.50
2022-09-25T13:41:47.302Z,34.00
2022-09-25T13:46:47.500Z,27.80
2022-09-25T13:51:47.714Z,21.80
2022-09-25T13:56:45.906Z,22.80
2022-09-25T14:01:45.205Z,14.50
2022-09-25T14:06:45.330Z,16.70
2022-09-25T14:11:43.485Z,14.80
2022-09-25T14:16:43.647Z,24.30
2022-09-25T14:21:41.812Z,280.20
2022-09-25T14:26:41.979Z,122.70
2022-09-25T14:31:40.218Z,56.10
2022-09-25T14:36:40.466Z,96.30
2022-09-25T14:41:39.748Z,97.30
2022-09-25T14:46:38.933Z,65.90
2022-09-25T14:51:38.119Z,63.80
2022-09-25T14:56:37.298Z,78.50
2022-09-25T15:01:36.512Z,36.20
2022-09-25T15:06:34.685Z,58.80
2022-09-25T15:11:35.874Z,98.10
2022-09-25T15:16:34.114Z,102.80
2022-09-25T15:21:33.338Z,118.80
2022-09-25T15:26:33.499Z,54.10
2022-09-25T15:31:31.728Z,51.90
2022-09-25T15:36:29.923Z,52.10
2022-09-25T15:41:30.152Z,108.50
2022-09-25T15:46:28.263Z,153.70
2022-09-25T15:51:27.460Z,140.20
2022-09-25T15:56:27.686Z,79.50
2022-09-25T16:01:25.957Z,75.80
2022-09-25T16:06:26.166Z,50.60
2022-09-25T16:11:25.334Z,83.70
2022-09-25T16:16:23.621Z,48.20
2022-09-25T16:21:22.690Z,67.60
2022-09-25T16:26:24.260Z,82.00
2022-09-25T16:31:21.115Z,134.10
2022-09-25T16:36:20.309Z,81.40
2022-09-25T16:41:19.496Z,77.30
2022-09-25T16:46:18.772Z,44.60
2022-09-25T16:51:18.031Z,58.20
2022-09-25T16:56:18.218Z,46.90
2022-09-25T17:01:15.598Z,39.50
2022-09-25T17:06:16.586Z,67.00
2022-09-25T17:11:14.856Z,44.30
2022-09-25T17:16:16.142Z,15.40
2022-09-25T17:21:14.309Z,19.10
2022-09-25T17:26:12.546Z,20.20
2022-09-25T17:31:11.881Z,30.60
2022-09-25T17:36:11.928Z,15.60
2022-09-25T17:41:11.155Z,11.90
2022-09-25T17:46:09.595Z,17.10
2022-09-25T17:51:08.600Z,11.70
2022-09-25T17:56:07.985Z,15.90
2022-09-25T18:01:08.050Z,12.20
2022-09-25T18:06:06.295Z,12.70
2022-09-25T18:11:05.886Z,9.10
2022-09-25T18:16:04.139Z,11.50
2022-09-25T18:21:08.915Z,9.10
2022-09-25T18:26:03.527Z,9.50
2022-09-25T18:31:02.842Z,8.80
2022-09-25T18:36:01.901Z,8.10
2022-09-25T18:41:01.287Z,7.00
2022-09-25T18:46:00.452Z,6.70
2022-09-25T18:50:59.459Z,7.20
2022-09-25T18:55:57.707Z,6.50
2022-09-25T19:00:57.944Z,8.70
2022-09-25T19:05:58.386Z,6.40
2022-09-25T19:10:57.391Z,6.70
2022-09-25T19:15:55.884Z,99.40
2022-09-25T19:20:55.989Z,86.80
2022-09-25T19:25:54.318Z,58.80
2022-09-25T19:30:54.424Z,54.00
2022-09-25T19:35:53.628Z,69.70
2022-09-25T19:40:51.885Z,37.00
2022-09-25T19:45:51.137Z,33.60
2022-09-25T19:50:52.363Z,27.80
2022-09-25T19:55:51.530Z,26.90
2022-09-25T20:00:48.701Z,16.50
2022-09-25T20:05:47.885Z,17.20
2022-09-25T20:10:47.099Z,38.80
2022-09-25T20:15:46.313Z,18.50
2022-09-25T20:20:45.475Z,104.10
2022-09-25T20:25:44.677Z,52.90
2022-09-25T20:30:44.854Z,65.80
2022-09-25T20:35:43.013Z,48.20
2022-09-25T20:40:44.304Z,65.80
2022-09-25T20:45:42.528Z,61.50
2022-09-25T20:50:40.697Z,56.40
2022-09-25T20:55:39.865Z,78.90
2022-09-25T21:00:39.045Z,63.10
2022-09-25T21:05:39.237Z,62.10
2022-09-25T21:10:39.397Z,51.90
2022-09-25T21:15:36.553Z,149.10
2022-09-25T21:20:36.725Z,96.80
2022-09-25T21:25:34.895Z,81.60
2022-09-25T21:30:35.128Z,62.00
2022-09-25T21:35:33.316Z,56.30
2022-09-25T21:40:33.535Z,46.40
2022-09-25T21:45:32.722Z,33.50
2022-09-25T21:50:30.914Z,45.50
2022-09-25T21:55:30.082Z,28.60
2022-09-25T22:00:30.257Z,30.40
2022-09-25T22:05:28.427Z,24.70
2022-09-25T22:10:27.600Z,99.40
2022-09-25T22:15:27.772Z,105.90
2022-09-25T22:20:25.921Z,86.00
2022-09-25T22:25:26.099Z,87.00
2022-09-25T22:30:26.329Z,74.80
2022-09-25T22:35:23.498Z,78.60
2022-09-25T22:40:22.754Z,96.50
2022-09-25T22:45:21.941Z,50.80
2022-09-25T22:50:22.122Z,50.40
2022-09-25T22:55:20.287Z,49.70
2022-09-25T23:00:18.459Z,45.10
2022-09-25T23:05:20.696Z,42.00
2022-09-25T23:10:17.820Z,35.70
2022-09-25T23:15:18.140Z,31.00
2022-09-25T23:20:14.459Z,26.60
2022-09-25T23:25:16.794Z,32.30
2022-09-25T23:30:15.139Z,30.30
2022-09-25T23:35:14.251Z,27.20
2022-09-25T23:40:15.968Z,30.50
2022-09-25T23:45:13.924Z,30.10
2022-09-25T23:50:13.005Z,24.10
2022-09-25T23:55:11.295Z,23.40
